Southaven, MS (38671)

9:41 AM CDT on April 19, 2015 (GMT -0500)
Brentwood Farms | | Change Station
CLOSE
Current Station
Personal Weather Station
Location: Southaven, MS
Elevation: 345 ft
Nearby Weather Stations

Elev 345 ft 34.97 °N, 89.96 °W | Updated 1 minute ago

Overcast
Overcast
66.1 °F
Feels Like 66.1 °F
N
1.0
Wind Variable Wind from SSW
Gusts 4.0 mph

Today
High -- | Low -- °F
--% Chance of Precip.
Yesterday
High -- | Low -- °F
Precip. -- in
6:23 AM 7:35 PM
New Moon, 1% visible
Pressure 29.60 in
Visibility 5.0 miles
Clouds Few 600 ft
Mostly Cloudy 1300 ft
Overcast 1700 ft
Dew Point 64 °F
Humidity 93%
Rainfall 0.20 in
Snow Depth Not available.
UV 1 out of 12
Pollen 8.10 out of 12
Air Quality Not available.
Flu Activity Sporadic
SPECI KMEM 191418Z 27006KT 5SM BR FEW006 BKN013 OVC017 20/18 A2960 RMK AO2

More Conditions Fewer Conditions

Pressure 29.60 in
Visibility 5.0 miles
Clouds Few 600 ft
Mostly Cloudy 1300 ft
Overcast 1700 ft
Dew Point 64 °F
Humidity 93%
Rainfall 0.20 in
Snow Depth Not available.
UV 1 out of 12
Pollen 8.10 out of 12
Air Quality Not available.
Flu Activity Sporadic
SPECI KMEM 191418Z 27006KT 5SM BR FEW006 BKN013 OVC017 20/18 A2960 RMK AO2

More Conditions Fewer Conditions

10-Day Weather Forecast

Almanac

Astronomy

Apr. 19, 2015 Rise Set
Actual Time
Civil Twilight
Nautical Twilight
Astronomical Twilight
Moon
Length of Visible Light
Length of Day
Tomorrow will be .
, % of the Moon is Illuminated

Today's Extremes

State Highs State Lows

Community

WunderPhotos

Upload Photos

1,814,826 photos uploaded!

WunderBlogs® & News

Nearby

Air Quality

  Air Quality AQ Index Pollutant
Not available.

Snow Depth

Station Depth Elevation

Earthquake Activity

City Distance Mag. Time & Date
Minimum magnitude displayed is 2.5.

Coastal Water Temperatures

Place Temperature

Stations

Nearby Weather Stations

Station Location Temp. Windchill Dew Point Humidity Wind Precip. Elev Updated Type